Time;durP1;ratioP1;P1;durP2;ratioP2;P2;SDS_P1;SDS_P2;PMS_P1;PMS_P2;Temp;Humidity;BMP_temperature;BMP_pressure;BME280_temperature;BME280_humidity;BME280_pressure;Samples;Min_cycle;Max_cycle;Signal;HPM_P1;HPM_P2
2024/01/12 00:00:29;;;;;;;50.33;24.35;;;0.40;99.90;;;;;;5054906;28;20076;-80
2024/01/12 00:02:55;;;;;;;46.08;25.20;;;0.50;99.90;;;;;;5067173;28;20502;-81
2024/01/12 00:05:21;;;;;;;51.60;24.25;;;0.50;99.90;;;;;;5054400;28;20135;-81
2024/01/12 00:07:47;;;;;;;53.25;25.58;;;0.40;99.90;;;;;;5060438;28;20120;-80
2024/01/12 00:10:13;;;;;;;50.58;24.75;;;0.40;99.90;;;;;;5058494;28;20044;-80
2024/01/12 00:12:39;;;;;;;38.03;20.05;;;1.10;99.90;;;;;;5066924;28;20055;-82
2024/01/12 00:15:05;;;;;;;44.30;22.67;;;0.50;99.90;;;;;;5065171;28;20053;-80
2024/01/12 00:17:31;;;;;;;53.05;26.08;;;0.50;99.90;;;;;;5062922;28;20396;-79
2024/01/12 00:19:57;;;;;;;45.08;23.42;;;0.50;99.90;;;;;;5067728;28;20114;-80
2024/01/12 00:22:23;;;;;;;45.28;24.48;;;0.50;99.90;;;;;;5068965;28;20455;-81
2024/01/12 00:24:49;;;;;;;51.10;23.10;;;0.70;99.90;;;;;;5054392;28;20063;-80
2024/01/12 00:27:15;;;;;;;42.55;21.98;;;0.60;99.90;;;;;;5054623;28;20049;-80
2024/01/12 00:29:41;;;;;;;37.60;20.40;;;0.50;99.90;;;;;;5062757;28;20551;-80
2024/01/12 00:32:07;;;;;;;47.78;20.13;;;0.60;99.90;;;;;;5071013;28;20041;-80
2024/01/12 00:34:33;;;;;;;42.78;20.90;;;0.60;99.90;;;;;;5072612;28;20442;-81
2024/01/12 00:37:00;;;;;;;37.10;19.15;;;0.60;99.90;;;;;;5068839;28;20048;-80
2024/01/12 00:39:26;;;;;;;42.25;19.60;;;0.80;99.90;;;;;;5074012;28;20088;-80
2024/01/12 00:41:52;;;;;;;52.42;22.60;;;0.70;99.90;;;;;;5061530;28;20124;-80
2024/01/12 00:44:18;;;;;;;48.10;22.23;;;0.60;99.90;;;;;;5054219;28;20123;-80
2024/01/12 00:46:45;;;;;;;41.95;22.02;;;0.60;99.90;;;;;;5053426;28;20051;-80
2024/01/12 00:49:11;;;;;;;38.72;19.13;;;0.60;99.90;;;;;;5052617;28;20057;-81
2024/01/12 00:51:37;;;;;;;40.72;20.95;;;1.20;99.90;;;;;;5063148;28;20480;-80
2024/01/12 00:54:04;;;;;;;37.75;20.30;;;0.60;99.90;;;;;;5057629;28;20055;-80
2024/01/12 00:56:29;;;;;;;38.70;18.02;;;0.90;99.90;;;;;;5056628;28;20041;-79
2024/01/12 00:58:55;;;;;;;41.85;19.95;;;0.60;99.90;;;;;;5055632;28;20056;-79
2024/01/12 01:01:22;;;;;;;41.20;18.92;;;0.70;99.90;;;;;;5052735;28;20076;-81
2024/01/12 01:03:48;;;;;;;43.08;19.42;;;0.60;99.90;;;;;;5053601;28;20045;-82
2024/01/12 01:06:14;;;;;;;41.00;20.10;;;0.90;99.90;;;;;;5053511;28;20049;-80
2024/01/12 01:08:39;;;;;;;37.03;17.52;;;0.70;99.90;;;;;;5052805;28;20049;-81
2024/01/12 01:11:05;;;;;;;32.97;18.05;;;0.70;99.90;;;;;;5072774;28;20141;-79
2024/01/12 01:13:31;;;;;;;36.55;17.50;;;0.70;99.90;;;;;;5054276;28;20041;-79
2024/01/12 01:15:57;;;;;;;30.23;16.23;;;0.70;99.90;;;;;;5056506;28;20462;-80
2024/01/12 01:18:23;;;;;;;37.50;16.70;;;0.70;99.90;;;;;;5069879;28;20120;-81
2024/01/12 01:20:49;;;;;;;40.92;18.55;;;0.70;99.90;;;;;;5072042;28;20052;-79
2024/01/12 01:23:15;;;;;;;34.08;16.65;;;0.80;99.90;;;;;;5073404;28;20142;-79
2024/01/12 01:25:41;;;;;;;33.67;18.42;;;0.80;99.90;;;;;;5064686;28;20131;-79
2024/01/12 01:28:06;;;;;;;41.28;19.52;;;0.80;99.90;;;;;;5054371;28;20520;-79
2024/01/12 01:30:32;;;;;;;38.28;19.25;;;0.80;99.90;;;;;;5054082;28;20041;-79
2024/01/12 01:32:58;;;;;;;41.50;18.08;;;0.80;99.90;;;;;;5054181;28;20075;-80
2024/01/12 01:35:24;;;;;;;32.67;16.98;;;0.80;99.90;;;;;;5055238;28;20076;-80
2024/01/12 01:37:50;;;;;;;32.92;17.33;;;1.30;99.90;;;;;;5054370;28;20111;-79
2024/01/12 01:40:16;;;;;;;24.10;12.38;;;0.80;99.90;;;;;;5055122;28;20447;-79
2024/01/12 01:42:41;;;;;;;26.55;12.40;;;0.90;99.90;;;;;;5055572;28;20041;-79
2024/01/12 01:45:07;;;;;;;25.58;12.13;;;0.90;99.90;;;;;;5070288;28;20056;-79
2024/01/12 01:47:33;;;;;;;29.98;14.07;;;1.00;99.90;;;;;;5075124;28;20044;-79
2024/01/12 01:49:59;;;;;;;34.70;13.70;;;1.00;99.90;;;;;;5072752;28;20045;-80
2024/01/12 01:52:27;;;;;;;25.67;13.25;;;1.80;99.90;;;;;;5054689;28;20127;-79
2024/01/12 01:54:57;;;;;;;21.92;11.43;;;1.10;99.90;;;;;;5055204;28;20045;-79
2024/01/12 01:57:24;;;;;;;24.52;12.43;;;1.10;99.90;;;;;;5055124;28;20102;-80
2024/01/12 01:59:50;;;;;;;22.65;12.00;;;1.10;99.90;;;;;;5054933;28;20045;-79
2024/01/12 02:02:16;;;;;;;26.27;11.70;;;1.10;99.90;;;;;;5071443;28;20040;-79
2024/01/12 02:04:42;;;;;;;29.70;12.70;;;1.10;99.90;;;;;;5072015;28;20057;-79
2024/01/12 02:07:08;;;;;;;30.95;14.27;;;1.20;99.90;;;;;;5072933;28;20109;-80
2024/01/12 02:09:35;;;;;;;27.02;13.80;;;1.20;99.90;;;;;;5074480;28;20122;-80
2024/01/12 02:12:04;;;;;;;26.52;13.00;;;1.20;99.90;;;;;;5057379;28;20084;-81
2024/01/12 02:14:30;;;;;;;27.40;13.52;;;1.20;99.90;;;;;;5053083;28;20044;-79
2024/01/12 02:16:55;;;;;;;34.03;12.88;;;1.20;99.90;;;;;;5054352;28;20041;-80
2024/01/12 02:19:21;;;;;;;35.60;13.95;;;1.20;99.90;;;;;;5053088;28;20048;-80
2024/01/12 02:21:47;;;;;;;30.92;12.55;;;1.20;99.90;;;;;;5053968;28;20045;-81
2024/01/12 02:24:12;;;;;;;21.52;12.60;;;1.20;99.90;;;;;;5054350;28;20073;-80
2024/01/12 02:26:38;;;;;;;21.55;12.18;;;1.20;99.90;;;;;;5057515;28;20056;-80
2024/01/12 02:29:05;;;;;;;24.80;13.43;;;1.50;99.90;;;;;;5065429;28;20118;-81
2024/01/12 02:31:30;;;;;;;31.00;13.13;;;1.20;99.90;;;;;;5059273;28;20446;-81
2024/01/12 02:33:56;;;;;;;34.35;13.95;;;1.20;99.90;;;;;;5073332;28;20052;-80
2024/01/12 02:36:26;;;;;;;25.00;11.52;;;1.20;99.90;;;;;;5055936;28;20048;-80
2024/01/12 02:38:52;;;;;;;21.85;11.93;;;1.50;99.90;;;;;;5063156;28;20045;-79
2024/01/12 02:41:18;;;;;;;23.65;11.32;;;1.50;99.90;;;;;;5052860;28;20041;-80
2024/01/12 02:43:44;;;;;;;32.38;13.75;;;2.10;99.90;;;;;;5053483;28;20458;-80
2024/01/12 02:46:10;;;;;;;26.48;13.27;;;1.20;99.90;;;;;;5053712;28;20070;-80
2024/01/12 02:48:36;;;;;;;29.60;13.23;;;1.20;99.90;;;;;;5053582;28;20052;-80
2024/01/12 02:51:01;;;;;;;27.58;14.23;;;1.20;99.90;;;;;;5067451;28;20383;-83
2024/01/12 02:53:27;;;;;;;32.50;14.93;;;1.20;99.90;;;;;;5058719;28;20094;-80
2024/01/12 02:55:53;;;;;;;27.75;14.30;;;1.20;99.90;;;;;;5073287;28;20695;-81
2024/01/12 02:58:18;;;;;;;33.50;14.18;;;1.20;99.90;;;;;;5056989;28;20070;-80
2024/01/12 03:00:44;;;;;;;27.80;14.15;;;1.20;99.90;;;;;;5053467;28;20049;-81
2024/01/12 03:03:10;;;;;;;29.67;13.68;;;1.20;99.90;;;;;;5053065;28;20040;-81
2024/01/12 03:05:35;;;;;;;24.20;13.63;;;1.20;99.90;;;;;;5053061;28;20037;-80
2024/01/12 03:08:01;;;;;;;21.45;13.02;;;1.20;99.90;;;;;;5054651;28;20102;-80
2024/01/12 03:10:27;;;;;;;26.90;12.38;;;1.20;99.90;;;;;;5065817;28;20041;-80
2024/01/12 03:12:52;;;;;;;22.95;11.40;;;1.20;99.90;;;;;;5053616;28;20040;-80
2024/01/12 03:15:19;;;;;;;27.08;13.43;;;1.20;99.90;;;;;;5053099;28;20041;-81
2024/01/12 03:17:44;;;;;;;24.35;12.63;;;1.20;99.90;;;;;;5071043;28;20119;-80
2024/01/12 03:20:10;;;;;;;22.55;10.75;;;1.20;99.90;;;;;;5057997;28;20131;-79
2024/01/12 03:22:36;;;;;;;20.67;10.20;;;1.20;99.90;;;;;;5056664;28;20453;-80
2024/01/12 03:25:02;;;;;;;20.35;10.25;;;1.20;99.90;;;;;;5072990;28;20446;-79
2024/01/12 03:27:28;;;;;;;23.65;9.65;;;1.10;99.90;;;;;;5062897;28;20052;-79
2024/01/12 03:29:54;;;;;;;22.73;11.05;;;1.10;99.90;;;;;;5072575;28;20062;-80
2024/01/12 03:32:21;;;;;;;19.00;9.52;;;1.00;99.90;;;;;;5073032;28;20045;-80
2024/01/12 03:34:46;;;;;;;27.98;11.63;;;1.00;99.90;;;;;;5073071;28;20044;-80
2024/01/12 03:37:12;;;;;;;22.25;10.10;;;0.90;99.90;;;;;;5072968;28;20044;-80
2024/01/12 03:39:38;;;;;;;17.50;9.35;;;1.80;99.90;;;;;;5072896;28;20053;-80
2024/01/12 03:42:04;;;;;;;17.30;10.00;;;0.80;99.90;;;;;;5070116;28;20473;-80
2024/01/12 03:44:30;;;;;;;20.33;10.45;;;0.70;99.90;;;;;;5052865;28;20040;-81
2024/01/12 03:46:56;;;;;;;22.45;10.30;;;0.70;99.90;;;;;;5052861;28;20049;-80
2024/01/12 03:49:24;;;;;;;20.98;9.75;;;0.60;99.90;;;;;;5051400;28;20044;-80
2024/01/12 03:51:57;;;;;;;19.83;10.50;;;0.60;99.90;;;;;;5053516;28;20535;-80
2024/01/12 03:54:27;;;;;;;22.10;11.05;;;0.60;99.90;;;;;;5076875;28;20053;-80
2024/01/12 03:56:53;;;;;;;20.35;9.63;;;0.60;99.90;;;;;;5057106;28;20102;-80
2024/01/12 03:59:19;;;;;;;15.55;9.13;;;0.90;99.90;;;;;;5065721;28;20044;-80
2024/01/12 04:01:47;;;;;;;25.60;11.40;;;0.60;99.90;;;;;;5058565;28;20041;-80
2024/01/12 04:04:13;;;;;;;19.50;12.25;;;0.60;99.90;;;;;;5056476;28;20037;-80
2024/01/12 04:06:42;;;;;;;23.98;10.88;;;0.60;99.90;;;;;;5068318;28;20388;-79
2024/01/12 04:09:11;;;;;;;20.85;10.60;;;0.70;99.90;;;;;;5077004;28;20110;-79
2024/01/12 04:11:37;;;;;;;28.98;9.93;;;0.90;99.90;;;;;;5058374;28;20060;-80
2024/01/12 04:14:03;;;;;;;25.23;9.95;;;0.70;99.90;;;;;;5074907;28;20048;-80
2024/01/12 04:16:29;;;;;;;22.20;10.02;;;1.40;99.90;;;;;;5068772;28;20051;-80
2024/01/12 04:18:55;;;;;;;22.60;10.27;;;0.80;99.90;;;;;;5056619;28;20037;-79
2024/01/12 04:21:21;;;;;;;23.55;9.73;;;1.30;99.90;;;;;;5066613;28;20115;-81
2024/01/12 04:23:46;;;;;;;23.48;9.32;;;0.90;99.90;;;;;;5071980;28;20130;-79
2024/01/12 04:26:12;;;;;;;22.10;9.13;;;0.90;99.90;;;;;;5055813;28;20477;-82
2024/01/12 04:28:37;;;;;;;21.70;9.57;;;0.90;99.90;;;;;;5056072;28;20052;-80
2024/01/12 04:31:04;;;;;;;23.17;8.98;;;1.00;99.90;;;;;;5059895;28;20041;-79
2024/01/12 04:33:30;;;;;;;22.95;9.90;;;1.00;99.90;;;;;;5072444;28;20083;-80
2024/01/12 04:35:57;;;;;;;17.85;8.50;;;1.10;99.90;;;;;;5075951;28;20056;-81
2024/01/12 04:38:23;;;;;;;24.92;9.30;;;1.10;99.90;;;;;;5063487;28;20132;-79
2024/01/12 04:40:49;;;;;;;20.48;9.52;;;1.10;99.90;;;;;;5074285;28;20045;-79
2024/01/12 04:43:15;;;;;;;22.25;8.30;;;1.20;99.90;;;;;;5075796;28;20043;-80
2024/01/12 04:45:40;;;;;;;26.75;10.35;;;1.10;99.90;;;;;;5057178;28;20087;-81
2024/01/12 04:48:06;;;;;;;28.48;10.50;;;1.20;99.90;;;;;;5055951;28;20235;-79
2024/01/12 04:50:32;;;;;;;28.80;9.57;;;1.30;99.90;;;;;;5063926;28;20387;-79
2024/01/12 04:52:57;;;;;;;26.00;8.75;;;1.30;99.90;;;;;;5064771;28;20033;-80
2024/01/12 04:55:23;;;;;;;26.77;10.00;;;1.40;99.90;;;;;;5061725;28;20127;-80
2024/01/12 04:57:49;;;;;;;22.67;9.55;;;1.40;99.90;;;;;;5055984;28;20045;-80
2024/01/12 05:00:16;;;;;;;30.80;10.55;;;1.40;99.90;;;;;;5059095;28;20052;-80
2024/01/12 05:02:41;;;;;;;35.45;10.00;;;1.40;99.90;;;;;;5061343;28;20041;-80
2024/01/12 05:05:10;;;;;;;21.42;9.85;;;1.40;99.90;;;;;;5065547;28;20045;-80
2024/01/12 05:07:36;;;;;;;28.90;11.77;;;1.40;99.90;;;;;;5058846;28;20102;-80
2024/01/12 05:10:03;;;;;;;29.35;10.48;;;1.40;99.90;;;;;;5061148;28;20119;-80
2024/01/12 05:12:29;;;;;;;30.38;10.77;;;1.40;99.90;;;;;;5070876;28;20036;-80
2024/01/12 05:14:55;;;;;;;28.98;10.27;;;1.40;99.90;;;;;;5074372;28;20175;-79
2024/01/12 05:17:22;;;;;;;24.33;9.65;;;1.40;99.90;;;;;;5067161;28;20060;-80
2024/01/12 05:19:47;;;;;;;24.95;9.50;;;1.40;99.90;;;;;;5065252;28;20052;-80
2024/01/12 05:22:13;;;;;;;26.65;10.20;;;1.40;99.90;;;;;;5075011;28;20052;-80
2024/01/12 05:24:39;;;;;;;25.13;9.32;;;1.40;99.90;;;;;;5071004;28;20481;-79
2024/01/12 05:27:04;;;;;;;21.40;9.65;;;1.40;99.90;;;;;;5055054;28;20057;-80
2024/01/12 05:29:30;;;;;;;25.00;9.57;;;1.40;99.90;;;;;;5055101;28;20049;-79
2024/01/12 05:31:56;;;;;;;21.58;9.93;;;1.40;99.90;;;;;;5054929;28;20052;-79
2024/01/12 05:34:22;;;;;;;22.27;10.32;;;1.40;99.90;;;;;;5068511;28;20040;-79
2024/01/12 05:36:47;;;;;;;23.58;11.10;;;1.40;99.90;;;;;;5065702;28;20045;-79
2024/01/12 05:39:14;;;;;;;25.25;10.02;;;1.40;99.90;;;;;;5055882;28;20041;-80
2024/01/12 05:41:40;;;;;;;23.67;10.63;;;1.90;99.90;;;;;;5070959;28;20048;-79
2024/01/12 05:44:06;;;;;;;28.27;12.02;;;1.30;99.90;;;;;;5068848;28;20481;-81
2024/01/12 05:46:31;;;;;;;28.17;10.07;;;1.30;99.90;;;;;;5071840;28;20036;-80
2024/01/12 05:49:00;;;;;;;32.72;10.88;;;1.30;99.90;;;;;;5062666;28;20187;-82
2024/01/12 05:51:26;;;;;;;22.85;9.15;;;1.20;99.90;;;;;;5058602;28;20511;-80
2024/01/12 05:53:52;;;;;;;25.73;10.18;;;1.20;99.90;;;;;;5054806;28;20037;-82
2024/01/12 05:56:17;;;;;;;22.52;9.65;;;1.20;99.90;;;;;;5057106;28;20119;-79
2024/01/12 05:58:43;;;;;;;26.80;10.10;;;1.20;99.90;;;;;;5054732;28;20045;-79
2024/01/12 06:01:09;;;;;;;23.15;10.27;;;1.20;99.90;;;;;;5062672;28;20444;-80
2024/01/12 06:03:34;;;;;;;21.77;9.07;;;1.20;99.90;;;;;;5062384;28;20120;-80
2024/01/12 06:06:01;;;;;;;29.88;9.10;;;1.20;99.90;;;;;;5054041;28;20044;-82
2024/01/12 06:08:26;;;;;;;22.98;8.13;;;1.20;99.90;;;;;;5059804;28;20498;-79
2024/01/12 06:10:52;;;;;;;28.10;9.43;;;1.20;99.90;;;;;;5064650;28;20041;-79
2024/01/12 06:13:18;;;;;;;23.75;8.80;;;1.20;99.90;;;;;;5071251;28;20041;-80
2024/01/12 06:15:43;;;;;;;23.00;10.07;;;1.20;99.90;;;;;;5058143;28;20059;-81
2024/01/12 06:18:09;;;;;;;27.35;10.77;;;1.20;99.90;;;;;;5070325;28;20052;-79
2024/01/12 06:20:35;;;;;;;22.98;10.27;;;1.20;99.90;;;;;;5064294;28;20067;-79
2024/01/12 06:23:01;;;;;;;26.45;9.50;;;1.20;99.90;;;;;;5061732;28;20378;-79
2024/01/12 06:25:29;;;;;;;21.65;10.13;;;1.20;99.90;;;;;;5064024;28;20060;-78
2024/01/12 06:27:55;;;;;;;21.67;9.18;;;1.30;99.90;;;;;;5057686;28;20051;-82
2024/01/12 06:30:20;;;;;;;22.75;9.43;;;1.20;99.90;;;;;;5064796;28;20421;-78
2024/01/12 06:32:46;;;;;;;23.38;9.70;;;1.30;99.90;;;;;;5072341;28;20071;-78
2024/01/12 06:35:12;;;;;;;28.83;9.32;;;1.30;99.90;;;;;;5067115;28;20455;-79
2024/01/12 06:37:38;;;;;;;26.88;9.73;;;1.60;99.90;;;;;;5054400;28;20110;-79
2024/01/12 06:40:05;;;;;;;35.95;9.88;;;1.30;99.90;;;;;;5062790;28;20047;-79
2024/01/12 06:42:31;;;;;;;30.50;9.38;;;1.30;99.90;;;;;;5050838;28;20048;-79
2024/01/12 06:44:57;;;;;;;26.48;9.18;;;1.40;99.90;;;;;;5053065;28;20044;-78
2024/01/12 06:47:23;;;;;;;28.35;8.75;;;1.40;99.90;;;;;;5052338;28;20041;-78
2024/01/12 06:49:49;;;;;;;29.02;9.93;;;1.40;99.90;;;;;;5041853;28;20051;-79
2024/01/12 06:52:15;;;;;;;26.95;9.93;;;1.40;99.90;;;;;;5052937;28;20049;-79
2024/01/12 06:54:52;;;;;;;26.83;10.65;;;1.40;99.90;;;;;;5065540;28;20491;-81
2024/01/12 06:57:17;;;;;;;29.45;10.02;;;1.40;99.90;;;;;;5066704;28;20143;-77
2024/01/12 06:59:43;;;;;;;29.45;10.32;;;1.50;99.90;;;;;;5068762;28;20168;-79
2024/01/12 07:02:09;;;;;;;25.40;10.25;;;1.50;99.90;;;;;;5062530;28;20116;-78
2024/01/12 07:04:35;;;;;;;30.38;10.65;;;1.50;99.90;;;;;;5067591;28;20498;-79
2024/01/12 07:07:02;;;;;;;25.45;9.27;;;1.50;99.90;;;;;;5062300;28;20361;-81
2024/01/12 07:09:27;;;;;;;26.23;10.35;;;1.50;99.90;;;;;;5057853;28;20053;-78
2024/01/12 07:11:53;;;;;;;28.25;10.05;;;1.50;99.90;;;;;;5060570;28;20056;-78
2024/01/12 07:14:19;;;;;;;34.60;10.20;;;1.70;99.90;;;;;;5071555;28;20052;-78
2024/01/12 07:16:45;;;;;;;24.25;9.13;;;1.50;99.90;;;;;;5065077;28;20040;-78
2024/01/12 07:19:11;;;;;;;29.13;10.77;;;1.60;99.90;;;;;;5072122;28;20044;-78
2024/01/12 07:21:37;;;;;;;25.02;9.73;;;1.60;99.90;;;;;;5062416;28;20099;-76
2024/01/12 07:24:03;;;;;;;21.40;9.85;;;1.60;99.90;;;;;;5052741;28;20057;-79
2024/01/12 07:26:29;;;;;;;26.58;10.20;;;1.60;99.90;;;;;;5060317;28;20519;-78
2024/01/12 07:28:54;;;;;;;30.52;10.27;;;1.60;99.90;;;;;;5052323;28;20041;-77
2024/01/12 07:31:20;;;;;;;30.08;11.05;;;1.60;99.90;;;;;;5052905;28;20049;-79
2024/01/12 07:33:46;;;;;;;26.80;10.00;;;1.60;99.90;;;;;;5058638;28;20037;-78
2024/01/12 07:36:12;;;;;;;34.40;10.55;;;1.60;99.90;;;;;;5062042;28;20394;-78
2024/01/12 07:38:37;;;;;;;28.02;10.20;;;1.60;99.90;;;;;;5070438;28;20052;-78
2024/01/12 07:41:03;;;;;;;30.05;10.93;;;1.60;99.90;;;;;;5061937;28;20056;-79
2024/01/12 07:43:30;;;;;;;27.75;10.07;;;1.60;99.90;;;;;;5070923;28;20036;-79
2024/01/12 07:45:57;;;;;;;28.65;10.73;;;1.60;99.90;;;;;;5071734;28;20041;-78
2024/01/12 07:48:23;;;;;;;27.00;10.55;;;1.60;99.90;;;;;;5066228;28;20049;-77
2024/01/12 07:50:49;;;;;;;28.25;10.07;;;1.60;99.90;;;;;;5049796;28;20044;-78
2024/01/12 07:53:14;;;;;;;23.60;9.48;;;1.60;99.90;;;;;;5051795;28;20067;-77
2024/01/12 07:55:40;;;;;;;24.83;10.15;;;1.60;99.90;;;;;;5056346;28;20068;-77
2024/01/12 07:58:06;;;;;;;28.83;8.50;;;1.80;99.90;;;;;;5051986;28;20053;-77
2024/01/12 08:00:32;;;;;;;23.50;9.15;;;1.60;99.90;;;;;;5061303;28;20127;-77
2024/01/12 08:02:57;;;;;;;24.27;9.82;;;1.70;99.90;;;;;;5071213;28;20466;-77
2024/01/12 08:05:23;;;;;;;26.75;10.45;;;1.60;99.90;;;;;;5043737;28;20056;-78
2024/01/12 08:07:49;;;;;;;27.45;10.43;;;1.60;99.90;;;;;;5064532;28;20476;-77
2024/01/12 08:10:15;;;;;;;23.25;10.15;;;2.30;99.90;;;;;;5059591;28;20052;-77
2024/01/12 08:12:41;;;;;;;28.17;10.30;;;1.70;99.90;;;;;;5053617;28;20473;-78
2024/01/12 08:15:10;;;;;;;41.28;11.77;;;1.60;99.90;;;;;;5060286;28;20096;-78
2024/01/12 08:17:40;;;;;;;27.08;11.23;;;1.70;99.90;;;;;;5047346;28;20102;-78
2024/01/12 08:20:06;;;;;;;23.77;10.93;;;1.70;99.90;;;;;;5060272;28;20492;-79
2024/01/12 08:22:32;;;;;;;24.88;11.30;;;1.70;99.90;;;;;;5063784;28;20753;-77
2024/01/12 08:24:58;;;;;;;23.10;8.98;;;1.90;99.90;;;;;;5049589;28;20053;-77
2024/01/12 08:27:24;;;;;;;19.63;8.65;;;1.70;99.90;;;;;;5050378;28;20411;-77
2024/01/12 08:29:50;;;;;;;24.42;9.13;;;1.70;99.90;;;;;;5044696;28;20051;-78
2024/01/12 08:32:16;;;;;;;22.50;9.52;;;1.70;99.90;;;;;;5052793;28;20037;-79
2024/01/12 08:34:41;;;;;;;25.13;9.35;;;1.80;99.90;;;;;;5052475;28;20049;-79
2024/01/12 08:37:07;;;;;;;25.75;8.35;;;1.80;99.90;;;;;;5034164;28;20045;-78
2024/01/12 08:39:33;;;;;;;23.88;8.88;;;1.80;99.90;;;;;;5058733;28;20863;-80
2024/01/12 08:41:59;;;;;;;23.50;9.73;;;1.80;99.90;;;;;;5060424;28;20045;-78
2024/01/12 08:44:26;;;;;;;23.48;8.93;;;1.90;99.90;;;;;;5037679;28;20098;-78
2024/01/12 08:46:54;;;;;;;22.20;9.13;;;2.50;99.90;;;;;;5037463;28;20051;-79
2024/01/12 08:49:21;;;;;;;30.38;9.43;;;1.90;99.90;;;;;;5064361;28;20040;-80
2024/01/12 08:51:48;;;;;;;31.00;10.63;;;1.90;99.90;;;;;;5060735;28;20037;-78
2024/01/12 08:54:14;;;;;;;29.77;9.50;;;1.90;99.90;;;;;;5056712;28;20373;-77
2024/01/12 08:56:40;;;;;;;28.13;9.57;;;2.00;99.90;;;;;;5038524;28;20044;-78
2024/01/12 08:59:06;;;;;;;20.38;8.77;;;2.00;99.90;;;;;;5054571;28;20538;-77
2024/01/12 09:01:31;;;;;;;30.70;10.88;;;2.00;99.90;;;;;;5065393;28;20045;-77
2024/01/12 09:03:57;;;;;;;30.40;10.05;;;2.00;99.90;;;;;;5054191;28;20056;-78
2024/01/12 09:06:23;;;;;;;22.42;10.30;;;2.20;99.90;;;;;;5054364;28;20388;-77
2024/01/12 09:08:50;;;;;;;21.63;8.65;;;2.00;99.90;;;;;;5054579;28;20047;-78
2024/01/12 09:11:16;;;;;;;22.80;8.80;;;2.00;99.90;;;;;;5054605;28;20091;-78
2024/01/12 09:13:42;;;;;;;17.08;7.93;;;2.10;99.90;;;;;;5054347;28;20045;-78
2024/01/12 09:16:11;;;;;;;20.80;7.70;;;2.30;99.90;;;;;;5054298;28;20044;-77
2024/01/12 09:18:37;;;;;;;22.15;8.52;;;2.10;99.90;;;;;;5054061;28;20095;-75
2024/01/12 09:21:03;;;;;;;22.27;8.73;;;2.20;99.90;;;;;;5053999;28;20068;-77
2024/01/12 09:23:29;;;;;;;21.45;7.32;;;2.20;99.90;;;;;;5054191;28;20045;-77
2024/01/12 09:25:55;;;;;;;22.50;8.02;;;2.20;99.90;;;;;;5054162;28;20041;-76
2024/01/12 09:28:21;;;;;;;20.80;7.80;;;2.20;99.90;;;;;;5055074;28;20041;-77
2024/01/12 09:30:47;;;;;;;21.15;8.73;;;2.20;99.90;;;;;;5060738;28;20045;-75
2024/01/12 09:33:16;;;;;;;26.55;7.40;;;2.30;99.90;;;;;;5053779;28;20045;-77
2024/01/12 09:35:42;;;;;;;25.52;7.38;;;2.30;99.90;;;;;;5070581;28;20090;-76
2024/01/12 09:38:07;;;;;;;22.85;6.97;;;2.30;99.90;;;;;;5073190;28;20127;-77
2024/01/12 09:40:33;;;;;;;23.67;6.13;;;2.30;99.90;;;;;;5053748;28;20064;-77
2024/01/12 09:43:00;;;;;;;16.00;6.30;;;2.40;99.90;;;;;;5055833;28;20099;-75
2024/01/12 09:45:26;;;;;;;22.13;6.28;;;2.40;99.90;;;;;;5073495;28;20094;-76
2024/01/12 09:47:53;;;;;;;13.80;4.50;;;2.40;99.90;;;;;;5073355;28;20037;-75
2024/01/12 09:50:21;;;;;;;17.73;5.30;;;2.40;99.90;;;;;;5070972;28;20105;-76
2024/01/12 09:52:48;;;;;;;20.67;6.22;;;2.50;99.90;;;;;;5055536;28;20370;-75
2024/01/12 09:55:14;;;;;;;24.27;5.68;;;2.50;99.90;;;;;;5053047;28;20045;-75
2024/01/12 09:57:40;;;;;;;17.90;5.60;;;2.50;99.90;;;;;;5036001;28;20047;-75
2024/01/12 10:00:09;;;;;;;20.60;5.05;;;2.50;99.90;;;;;;5066860;28;20429;-76
2024/01/12 10:02:35;;;;;;;16.90;5.63;;;2.50;99.90;;;;;;5045604;28;20040;-76
2024/01/12 10:05:00;;;;;;;21.58;5.32;;;2.60;99.90;;;;;;5052651;28;20118;-78
2024/01/12 10:07:26;;;;;;;20.17;5.13;;;2.70;99.90;;;;;;5072593;28;20046;-76
2024/01/12 10:09:53;;;;;;;18.98;4.97;;;2.60;99.90;;;;;;5073285;28;20052;-76
2024/01/12 10:12:18;;;;;;;27.52;6.32;;;2.60;99.90;;;;;;5072862;28;20048;-76
2024/01/12 10:14:44;;;;;;;37.85;10.38;;;2.70;99.90;;;;;;5066246;28;20132;-76
2024/01/12 10:17:11;;;;;;;17.98;3.78;;;2.70;99.90;;;;;;5053553;28;20389;-76
2024/01/12 10:19:37;;;;;;;17.67;3.53;;;2.90;99.90;;;;;;5074171;28;20075;-76
2024/01/12 10:22:03;;;;;;;22.50;3.72;;;2.80;99.90;;;;;;5061953;28;20089;-74
2024/01/12 10:24:30;;;;;;;13.35;2.80;;;2.80;99.90;;;;;;5036565;28;20057;-77
2024/01/12 10:27:02;;;;;;;18.27;3.78;;;2.90;99.90;;;;;;5053031;28;20473;-76
2024/01/12 10:29:27;;;;;;;12.25;2.40;;;2.90;99.90;;;;;;5052753;28;20049;-76
2024/01/12 10:31:53;;;;;;;13.30;2.17;;;3.00;99.90;;;;;;5052489;28;20390;-77
2024/01/12 10:34:20;;;;;;;14.38;2.38;;;3.00;99.90;;;;;;5060542;28;20448;-76
2024/01/12 10:36:51;;;;;;;14.57;2.72;;;3.00;99.90;;;;;;5073935;28;20087;-76
2024/01/12 10:39:19;;;;;;;14.55;2.63;;;3.10;99.90;;;;;;5071809;28;20508;-76
2024/01/12 10:41:46;;;;;;;19.80;2.60;;;3.10;99.90;;;;;;5072419;28;20040;-76
2024/01/12 10:44:15;;;;;;;14.40;2.30;;;4.00;99.90;;;;;;5071549;28;20051;-76
2024/01/12 10:46:45;;;;;;;14.68;2.10;;;3.20;99.90;;;;;;5034968;28;20057;-76
2024/01/12 10:49:21;;;;;;;20.45;2.50;;;3.20;99.90;;;;;;5051814;28;20550;-76
2024/01/12 10:52:00;;;;;;;16.65;2.47;;;3.30;99.90;;;;;;5052512;28;20399;-75
2024/01/12 10:54:32;;;;;;;11.02;2.70;;;3.20;99.90;;;;;;5052444;28;20148;-75
2024/01/12 10:56:59;;;;;;;17.77;2.47;;;3.30;99.90;;;;;;5052259;28;20456;-76
2024/01/12 10:59:27;;;;;;;17.30;2.30;;;3.30;99.90;;;;;;5063281;28;20045;-76
2024/01/12 11:01:54;;;;;;;23.45;2.80;;;3.30;99.90;;;;;;5055024;28;20052;-75
2024/01/12 11:04:23;;;;;;;12.70;2.33;;;3.80;99.90;;;;;;5070022;28;20056;-76
2024/01/12 11:06:55;;;;;;;10.38;2.92;;;3.40;99.90;;;;;;5062624;28;20128;-76
2024/01/12 11:09:22;;;;;;;18.80;2.47;;;3.40;99.90;;;;;;5051982;28;20049;-77
2024/01/12 11:12:09;;;;;;;11.32;2.47;;;3.40;99.90;;;;;;5052028;28;20473;-76
2024/01/12 11:14:36;;;;;;;17.13;2.30;;;3.40;99.90;;;;;;5053224;28;20524;-76
2024/01/12 11:17:05;;;;;;;18.08;2.45;;;3.50;99.90;;;;;;5051903;28;20075;-76
2024/01/12 11:19:32;;;;;;;17.13;2.33;;;3.50;99.90;;;;;;5051588;28;20099;-76
2024/01/12 11:22:09;;;;;;;22.33;3.55;;;3.50;99.90;;;;;;5051740;28;20057;-76
2024/01/12 11:24:42;;;;;;;11.02;2.70;;;3.50;99.90;;;;;;5052270;28;20103;-77
2024/01/12 11:27:12;;;;;;;13.87;2.70;;;3.50;99.90;;;;;;5063377;28;20040;-77
2024/01/12 11:29:39;;;;;;;29.98;8.60;;;3.50;99.90;;;;;;5052137;28;20417;-76
2024/01/12 11:32:05;;;;;;;19.15;4.18;;;3.60;99.90;;;;;;5058833;28;20109;-76
2024/01/12 11:34:33;;;;;;;16.02;3.72;;;3.60;99.90;;;;;;5070226;28;20485;-78
2024/01/12 11:37:00;;;;;;;19.75;4.35;;;3.70;99.90;;;;;;5055593;28;20040;-77
2024/01/12 11:39:25;;;;;;;24.42;6.28;;;3.70;99.90;;;;;;5071587;28;20075;-77
2024/01/12 11:41:55;;;;;;;42.08;11.73;;;3.70;99.90;;;;;;5072652;28;20052;-78
2024/01/12 11:44:23;;;;;;;26.35;5.25;;;3.70;99.90;;;;;;5064596;28;20052;-77
2024/01/12 11:46:49;;;;;;;18.38;4.07;;;3.70;99.90;;;;;;5051537;28;20133;-78
2024/01/12 11:49:15;;;;;;;15.15;3.63;;;3.70;99.90;;;;;;5037977;28;20560;-76
2024/01/12 11:51:41;;;;;;;14.80;3.78;;;3.80;99.90;;;;;;5071391;28;20048;-77
2024/01/12 11:54:07;;;;;;;18.48;3.35;;;3.70;99.90;;;;;;5054859;28;20044;-77
2024/01/12 11:56:32;;;;;;;22.45;4.30;;;3.70;99.90;;;;;;5060357;28;20048;-78
2024/01/12 11:58:58;;;;;;;22.05;5.28;;;3.70;99.90;;;;;;5060365;28;20051;-77
2024/01/12 12:01:24;;;;;;;21.52;4.03;;;3.70;99.90;;;;;;5051526;28;20404;-77
2024/01/12 12:03:50;;;;;;;20.38;5.60;;;3.80;99.90;;;;;;5052874;28;20067;-76
2024/01/12 12:06:16;;;;;;;16.25;3.30;;;3.70;99.90;;;;;;5056681;28;20045;-76
2024/01/12 12:08:42;;;;;;;19.27;3.67;;;3.70;99.90;;;;;;5052907;28;20132;-77
2024/01/12 12:11:08;;;;;;;18.75;5.05;;;3.70;99.90;;;;;;5051377;28;20132;-76
2024/01/12 12:13:35;;;;;;;20.77;4.05;;;3.80;99.90;;;;;;5051440;28;20492;-76
2024/01/12 12:16:04;;;;;;;24.73;3.75;;;3.80;99.90;;;;;;5065267;28;20048;-77
2024/01/12 12:18:34;;;;;;;16.52;3.05;;;3.80;99.90;;;;;;5055064;28;20037;-77
2024/01/12 12:21:00;;;;;;;21.02;6.03;;;3.80;99.90;;;;;;5054521;28;20075;-76
2024/01/12 12:23:27;;;;;;;20.60;4.25;;;3.80;99.90;;;;;;5071185;28;20523;-76
2024/01/12 12:25:53;;;;;;;20.83;3.95;;;3.80;99.90;;;;;;5064341;28;20059;-76
2024/01/12 12:28:20;;;;;;;20.33;4.00;;;3.80;99.90;;;;;;5054945;28;20135;-77
2024/01/12 12:30:46;;;;;;;25.83;5.60;;;3.80;99.90;;;;;;5037574;28;20053;-76
2024/01/12 12:33:11;;;;;;;21.75;4.90;;;3.80;99.90;;;;;;5055337;28;20032;-77
2024/01/12 12:35:37;;;;;;;17.95;2.92;;;3.80;99.90;;;;;;5057712;28;20037;-76